Terminal Aerodrome Forecast
Issued by NWS

Home | Current Version | Previous Version | Text Only | Print | Product List | Glossary On
Versions: 1 2 3 4 5 6 7 8 9 10 11 12 13 14 15 16 17 18 19 20
000
FTUS46 KLOX 251232 AAA
TAFLGB
TAF AMD
KLGB 251232Z 2513/2612 VRB03KT P6SM BKN018
     FM251800 20008KT P6SM SCT025
     FM260000 28010KT P6SM SCT030
     FM260500 28006KT P6SM BKN015=

USA.gov is the U.S. government's official web portal to all federal, state and local government web resources and services.